sensor_id;sensor_type;location;lat;lon;timestamp;temperature;humidity
68251;DHT22;55066;51.560;4.642;2023-11-19T00:01:18;12.85;99.99
68251;DHT22;55066;51.560;4.642;2023-11-19T00:03:44;12.81;99.99
68251;DHT22;55066;51.560;4.642;2023-11-19T00:06:10;12.87;99.99
68251;DHT22;55066;51.560;4.642;2023-11-19T00:08:36;12.77;99.99
68251;DHT22;55066;51.560;4.642;2023-11-19T00:11:02;12.72;99.99
68251;DHT22;55066;51.560;4.642;2023-11-19T00:13:28;12.80;99.99
68251;DHT22;55066;51.560;4.642;2023-11-19T00:15:53;12.77;99.99
68251;DHT22;55066;51.560;4.642;2023-11-19T00:18:19;12.72;99.99
68251;DHT22;55066;51.560;4.642;2023-11-19T00:20:44;12.60;99.99
68251;DHT22;55066;51.560;4.642;2023-11-19T00:23:10;12.57;99.99
68251;DHT22;55066;51.560;4.642;2023-11-19T00:25:35;12.68;99.99
68251;DHT22;55066;51.560;4.642;2023-11-19T00:28:01;12.64;99.99
68251;DHT22;55066;51.560;4.642;2023-11-19T00:30:27;12.61;99.99
68251;DHT22;55066;51.560;4.642;2023-11-19T00:32:52;12.57;99.99
68251;DHT22;55066;51.560;4.642;2023-11-19T00:35:18;12.55;99.99
68251;DHT22;55066;51.560;4.642;2023-11-19T00:37:44;12.51;99.99
68251;DHT22;55066;51.560;4.642;2023-11-19T00:40:14;12.64;99.99
68251;DHT22;55066;51.560;4.642;2023-11-19T00:42:41;12.68;99.99
68251;DHT22;55066;51.560;4.642;2023-11-19T00:45:06;12.64;99.99
68251;DHT22;55066;51.560;4.642;2023-11-19T00:47:35;12.61;99.99
68251;DHT22;55066;51.560;4.642;2023-11-19T00:50:02;12.54;99.99
68251;DHT22;55066;51.560;4.642;2023-11-19T00:52:28;12.53;99.99
68251;DHT22;55066;51.560;4.642;2023-11-19T00:54:54;12.48;99.99
68251;DHT22;55066;51.560;4.642;2023-11-19T00:57:19;12.57;99.99
68251;DHT22;55066;51.560;4.642;2023-11-19T00:59:45;12.64;99.99
68251;DHT22;55066;51.560;4.642;2023-11-19T01:02:10;12.54;99.99
68251;DHT22;55066;51.560;4.642;2023-11-19T01:04:36;12.50;99.99
68251;DHT22;55066;51.560;4.642;2023-11-19T01:07:03;12.40;99.99
68251;DHT22;55066;51.560;4.642;2023-11-19T01:09:32;12.44;99.99
68251;DHT22;55066;51.560;4.642;2023-11-19T01:12:00;12.41;99.99
68251;DHT22;55066;51.560;4.642;2023-11-19T01:14:27;12.38;99.99
68251;DHT22;55066;51.560;4.642;2023-11-19T01:16:52;12.38;99.99
68251;DHT22;55066;51.560;4.642;2023-11-19T01:19:20;12.34;99.99
68251;DHT22;55066;51.560;4.642;2023-11-19T01:21:46;12.33;99.99
68251;DHT22;55066;51.560;4.642;2023-11-19T01:24:12;12.20;99.99
68251;DHT22;55066;51.560;4.642;2023-11-19T01:26:38;12.10;99.99
68251;DHT22;55066;51.560;4.642;2023-11-19T01:29:04;12.03;99.99
68251;DHT22;55066;51.560;4.642;2023-11-19T01:31:30;11.96;99.99
68251;DHT22;55066;51.560;4.642;2023-11-19T01:33:59;11.96;99.99
68251;DHT22;55066;51.560;4.642;2023-11-19T01:36:24;11.88;99.99
68251;DHT22;55066;51.560;4.642;2023-11-19T01:38:50;11.79;99.99
68251;DHT22;55066;51.560;4.642;2023-11-19T01:41:15;11.86;99.99
68251;DHT22;55066;51.560;4.642;2023-11-19T01:43:41;11.90;99.99
68251;DHT22;55066;51.560;4.642;2023-11-19T01:46:07;11.83;99.99
68251;DHT22;55066;51.560;4.642;2023-11-19T01:48:42;11.81;99.99
68251;DHT22;55066;51.560;4.642;2023-11-19T01:51:09;11.71;99.99
68251;DHT22;55066;51.560;4.642;2023-11-19T01:53:36;11.77;99.99
68251;DHT22;55066;51.560;4.642;2023-11-19T01:56:04;11.69;99.99
68251;DHT22;55066;51.560;4.642;2023-11-19T01:58:30;11.68;99.99
68251;DHT22;55066;51.560;4.642;2023-11-19T02:00:56;11.65;99.99
68251;DHT22;55066;51.560;4.642;2023-11-19T02:03:23;11.69;99.99
68251;DHT22;55066;51.560;4.642;2023-11-19T02:05:51;11.72;99.99
68251;DHT22;55066;51.560;4.642;2023-11-19T02:08:16;11.74;99.99
68251;DHT22;55066;51.560;4.642;2023-11-19T02:10:42;11.68;99.99
68251;DHT22;55066;51.560;4.642;2023-11-19T02:13:11;11.60;99.99
68251;DHT22;55066;51.560;4.642;2023-11-19T02:15:40;11.47;99.99
68251;DHT22;55066;51.560;4.642;2023-11-19T02:18:22;11.55;99.99
68251;DHT22;55066;51.560;4.642;2023-11-19T02:20:51;11.40;99.99
68251;DHT22;55066;51.560;4.642;2023-11-19T02:23:18;11.45;99.99
68251;DHT22;55066;51.560;4.642;2023-11-19T02:28:31;11.41;99.99
68251;DHT22;55066;51.560;4.642;2023-11-19T02:30:58;11.41;99.99
68251;DHT22;55066;51.560;4.642;2023-11-19T02:33:24;11.23;99.99
68251;DHT22;55066;51.560;4.642;2023-11-19T02:35:50;11.24;99.99
68251;DHT22;55066;51.560;4.642;2023-11-19T02:38:16;11.28;99.99
68251;DHT22;55066;51.560;4.642;2023-11-19T02:40:41;11.23;99.99
68251;DHT22;55066;51.560;4.642;2023-11-19T02:43:07;11.06;99.99
68251;DHT22;55066;51.560;4.642;2023-11-19T02:45:33;11.03;99.99
68251;DHT22;55066;51.560;4.642;2023-11-19T02:47:59;11.16;99.99
68251;DHT22;55066;51.560;4.642;2023-11-19T02:50:28;11.16;99.99
68251;DHT22;55066;51.560;4.642;2023-11-19T02:52:54;11.22;99.99
68251;DHT22;55066;51.560;4.642;2023-11-19T02:55:22;11.09;99.99
68251;DHT22;55066;51.560;4.642;2023-11-19T02:57:49;11.14;99.99
68251;DHT22;55066;51.560;4.642;2023-11-19T03:00:16;11.16;99.99
68251;DHT22;55066;51.560;4.642;2023-11-19T03:02:43;11.16;99.99
68251;DHT22;55066;51.560;4.642;2023-11-19T03:05:14;11.13;99.99
68251;DHT22;55066;51.560;4.642;2023-11-19T03:07:43;11.12;99.99
68251;DHT22;55066;51.560;4.642;2023-11-19T03:10:12;11.10;99.99
68251;DHT22;55066;51.560;4.642;2023-11-19T03:12:43;11.02;99.99
68251;DHT22;55066;51.560;4.642;2023-11-19T03:15:09;11.02;99.99
68251;DHT22;55066;51.560;4.642;2023-11-19T03:17:38;11.03;99.99
68251;DHT22;55066;51.560;4.642;2023-11-19T03:20:08;11.09;99.99
68251;DHT22;55066;51.560;4.642;2023-11-19T03:22:39;11.04;99.99
68251;DHT22;55066;51.560;4.642;2023-11-19T03:25:04;11.02;99.99
68251;DHT22;55066;51.560;4.642;2023-11-19T03:27:30;10.95;99.99
68251;DHT22;55066;51.560;4.642;2023-11-19T03:29:56;10.86;99.99
68251;DHT22;55066;51.560;4.642;2023-11-19T03:32:21;10.96;99.99
68251;DHT22;55066;51.560;4.642;2023-11-19T03:34:47;10.95;99.99
68251;DHT22;55066;51.560;4.642;2023-11-19T03:37:12;10.86;99.99
68251;DHT22;55066;51.560;4.642;2023-11-19T03:39:42;10.85;99.99
68251;DHT22;55066;51.560;4.642;2023-11-19T03:42:07;10.85;99.99
68251;DHT22;55066;51.560;4.642;2023-11-19T03:44:33;10.88;99.99
68251;DHT22;55066;51.560;4.642;2023-11-19T03:46:58;10.86;99.99
68251;DHT22;55066;51.560;4.642;2023-11-19T03:49:24;10.89;99.99
68251;DHT22;55066;51.560;4.642;2023-11-19T03:51:50;10.88;99.99
68251;DHT22;55066;51.560;4.642;2023-11-19T03:54:16;10.82;99.99
68251;DHT22;55066;51.560;4.642;2023-11-19T03:56:42;10.86;99.99
68251;DHT22;55066;51.560;4.642;2023-11-19T03:59:07;10.78;99.99
68251;DHT22;55066;51.560;4.642;2023-11-19T04:01:36;10.85;99.99
68251;DHT22;55066;51.560;4.642;2023-11-19T04:04:03;10.97;99.99
68251;DHT22;55066;51.560;4.642;2023-11-19T04:06:29;10.89;99.99
68251;DHT22;55066;51.560;4.642;2023-11-19T04:08:57;10.92;99.99
68251;DHT22;55066;51.560;4.642;2023-11-19T04:11:23;10.91;99.99
68251;DHT22;55066;51.560;4.642;2023-11-19T04:13:49;10.86;99.99
68251;DHT22;55066;51.560;4.642;2023-11-19T04:16:14;10.76;99.99
68251;DHT22;55066;51.560;4.642;2023-11-19T04:18:40;10.80;99.99
68251;DHT22;55066;51.560;4.642;2023-11-19T04:21:07;10.79;99.99
68251;DHT22;55066;51.560;4.642;2023-11-19T04:23:33;10.72;99.99
68251;DHT22;55066;51.560;4.642;2023-11-19T04:26:02;10.73;99.99
68251;DHT22;55066;51.560;4.642;2023-11-19T04:28:29;10.73;99.99
68251;DHT22;55066;51.560;4.642;2023-11-19T04:30:54;10.78;99.99
68251;DHT22;55066;51.560;4.642;2023-11-19T04:33:20;10.73;99.99
68251;DHT22;55066;51.560;4.642;2023-11-19T04:35:46;10.82;99.99
68251;DHT22;55066;51.560;4.642;2023-11-19T04:38:12;10.73;99.99
68251;DHT22;55066;51.560;4.642;2023-11-19T04:40:37;10.86;99.99
68251;DHT22;55066;51.560;4.642;2023-11-19T04:43:02;10.85;99.99
68251;DHT22;55066;51.560;4.642;2023-11-19T04:45:28;10.85;99.99
68251;DHT22;55066;51.560;4.642;2023-11-19T04:47:54;10.86;99.99
68251;DHT22;55066;51.560;4.642;2023-11-19T04:50:20;10.85;99.99
68251;DHT22;55066;51.560;4.642;2023-11-19T04:52:45;10.91;99.99
68251;DHT22;55066;51.560;4.642;2023-11-19T04:55:12;10.91;99.99
68251;DHT22;55066;51.560;4.642;2023-11-19T04:57:40;10.82;99.99
68251;DHT22;55066;51.560;4.642;2023-11-19T05:00:06;10.91;99.99
68251;DHT22;55066;51.560;4.642;2023-11-19T05:02:34;10.97;99.99
68251;DHT22;55066;51.560;4.642;2023-11-19T05:05:00;10.89;99.99
68251;DHT22;55066;51.560;4.642;2023-11-19T05:07:26;10.79;99.99
68251;DHT22;55066;51.560;4.642;2023-11-19T05:09:52;10.75;99.99
68251;DHT22;55066;51.560;4.642;2023-11-19T05:12:17;10.68;99.99
68251;DHT22;55066;51.560;4.642;2023-11-19T05:14:43;10.66;99.99
68251;DHT22;55066;51.560;4.642;2023-11-19T05:17:15;10.73;99.99
68251;DHT22;55066;51.560;4.642;2023-11-19T05:19:40;10.76;99.99
68251;DHT22;55066;51.560;4.642;2023-11-19T05:22:05;10.85;99.99
68251;DHT22;55066;51.560;4.642;2023-11-19T05:24:31;10.91;99.99
68251;DHT22;55066;51.560;4.642;2023-11-19T05:26:57;10.75;99.99
68251;DHT22;55066;51.560;4.642;2023-11-19T05:29:23;10.64;99.99
68251;DHT22;55066;51.560;4.642;2023-11-19T05:31:49;10.65;99.99
68251;DHT22;55066;51.560;4.642;2023-11-19T05:34:15;10.75;99.99
68251;DHT22;55066;51.560;4.642;2023-11-19T05:36:41;10.68;99.99
68251;DHT22;55066;51.560;4.642;2023-11-19T05:39:06;10.78;99.99
68251;DHT22;55066;51.560;4.642;2023-11-19T05:41:32;10.64;99.99
68251;DHT22;55066;51.560;4.642;2023-11-19T05:43:57;10.65;99.99
68251;DHT22;55066;51.560;4.642;2023-11-19T05:46:23;10.55;99.99
68251;DHT22;55066;51.560;4.642;2023-11-19T05:48:50;10.54;99.99
68251;DHT22;55066;51.560;4.642;2023-11-19T05:51:16;10.62;99.99
68251;DHT22;55066;51.560;4.642;2023-11-19T05:53:43;10.62;99.99
68251;DHT22;55066;51.560;4.642;2023-11-19T05:56:09;10.61;99.99
68251;DHT22;55066;51.560;4.642;2023-11-19T05:58:35;10.49;99.99
68251;DHT22;55066;51.560;4.642;2023-11-19T06:01:01;10.59;99.99
68251;DHT22;55066;51.560;4.642;2023-11-19T06:03:28;10.45;99.99
68251;DHT22;55066;51.560;4.642;2023-11-19T06:05:53;10.38;99.99
68251;DHT22;55066;51.560;4.642;2023-11-19T06:08:20;10.45;99.99
68251;DHT22;55066;51.560;4.642;2023-11-19T06:10:46;10.58;99.99
68251;DHT22;55066;51.560;4.642;2023-11-19T06:13:13;10.59;99.99
68251;DHT22;55066;51.560;4.642;2023-11-19T06:15:41;10.62;99.99
68251;DHT22;55066;51.560;4.642;2023-11-19T06:18:07;10.55;99.99
68251;DHT22;55066;51.560;4.642;2023-11-19T06:20:33;10.51;99.99
68251;DHT22;55066;51.560;4.642;2023-11-19T06:22:59;10.57;99.99
68251;DHT22;55066;51.560;4.642;2023-11-19T06:25:25;10.48;99.99
68251;DHT22;55066;51.560;4.642;2023-11-19T06:27:51;10.55;99.99
68251;DHT22;55066;51.560;4.642;2023-11-19T06:30:17;10.54;99.99
68251;DHT22;55066;51.560;4.642;2023-11-19T06:32:42;10.48;99.99
68251;DHT22;55066;51.560;4.642;2023-11-19T06:35:08;10.38;99.99
68251;DHT22;55066;51.560;4.642;2023-11-19T06:37:36;10.41;99.99
68251;DHT22;55066;51.560;4.642;2023-11-19T06:40:02;10.38;99.99
68251;DHT22;55066;51.560;4.642;2023-11-19T06:42:28;10.48;99.99
68251;DHT22;55066;51.560;4.642;2023-11-19T06:44:53;10.38;99.99
68251;DHT22;55066;51.560;4.642;2023-11-19T06:47:19;10.31;99.99
68251;DHT22;55066;51.560;4.642;2023-11-19T06:49:45;10.36;99.99
68251;DHT22;55066;51.560;4.642;2023-11-19T06:52:10;10.37;99.99
68251;DHT22;55066;51.560;4.642;2023-11-19T06:54:59;10.49;99.99
68251;DHT22;55066;51.560;4.642;2023-11-19T07:02:02;10.61;99.99
68251;DHT22;55066;51.560;4.642;2023-11-19T07:05:23;10.52;99.99
68251;DHT22;55066;51.560;4.642;2023-11-19T07:08:22;10.62;99.99
68251;DHT22;55066;51.560;4.642;2023-11-19T07:11:21;10.62;99.99
68251;DHT22;55066;51.560;4.642;2023-11-19T07:14:28;10.62;99.99
68251;DHT22;55066;51.560;4.642;2023-11-19T07:21:20;10.55;99.99
68251;DHT22;55066;51.560;4.642;2023-11-19T07:23:57;10.59;99.99
68251;DHT22;55066;51.560;4.642;2023-11-19T07:26:40;10.64;99.99
68251;DHT22;55066;51.560;4.642;2023-11-19T07:29:36;10.64;99.99
68251;DHT22;55066;51.560;4.642;2023-11-19T07:32:29;10.65;99.99
68251;DHT22;55066;51.560;4.642;2023-11-19T07:35:05;10.75;99.99
68251;DHT22;55066;51.560;4.642;2023-11-19T07:37:41;10.71;99.99
68251;DHT22;55066;51.560;4.642;2023-11-19T07:40:19;10.69;99.99
68251;DHT22;55066;51.560;4.642;2023-11-19T07:47:01;10.72;99.99
68251;DHT22;55066;51.560;4.642;2023-11-19T07:49:32;10.76;99.99
68251;DHT22;55066;51.560;4.642;2023-11-19T07:52:06;10.78;99.99
68251;DHT22;55066;51.560;4.642;2023-11-19T07:54:40;10.72;99.99
68251;DHT22;55066;51.560;4.642;2023-11-19T07:57:11;10.78;99.99
68251;DHT22;55066;51.560;4.642;2023-11-19T07:59:51;10.80;99.99
68251;DHT22;55066;51.560;4.642;2023-11-19T08:02:26;10.89;99.99
68251;DHT22;55066;51.560;4.642;2023-11-19T08:04:57;10.88;99.99
68251;DHT22;55066;51.560;4.642;2023-11-19T08:07:30;10.92;99.99
68251;DHT22;55066;51.560;4.642;2023-11-19T08:10:14;10.89;99.99
68251;DHT22;55066;51.560;4.642;2023-11-19T08:12:47;10.99;99.99
68251;DHT22;55066;51.560;4.642;2023-11-19T08:15:22;11.02;99.99
68251;DHT22;55066;51.560;4.642;2023-11-19T08:17:51;11.03;99.99
68251;DHT22;55066;51.560;4.642;2023-11-19T08:20:29;11.04;99.99
68251;DHT22;55066;51.560;4.642;2023-11-19T08:23:02;11.17;99.99
68251;DHT22;55066;51.560;4.642;2023-11-19T08:25:36;11.19;99.99
68251;DHT22;55066;51.560;4.642;2023-11-19T08:28:08;11.14;99.99
68251;DHT22;55066;51.560;4.642;2023-11-19T08:30:42;11.14;99.99
68251;DHT22;55066;51.560;4.642;2023-11-19T08:33:11;11.03;99.99
68251;DHT22;55066;51.560;4.642;2023-11-19T08:35:43;11.06;99.99
68251;DHT22;55066;51.560;4.642;2023-11-19T08:38:17;11.10;99.99
68251;DHT22;55066;51.560;4.642;2023-11-19T08:40:49;11.13;99.99
68251;DHT22;55066;51.560;4.642;2023-11-19T08:43:22;11.24;99.99
68251;DHT22;55066;51.560;4.642;2023-11-19T08:45:51;11.20;99.99
68251;DHT22;55066;51.560;4.642;2023-11-19T08:48:25;11.26;99.99
68251;DHT22;55066;51.560;4.642;2023-11-19T08:51:01;11.20;99.99
68251;DHT22;55066;51.560;4.642;2023-11-19T08:53:39;11.26;99.99
68251;DHT22;55066;51.560;4.642;2023-11-19T08:56:11;11.34;99.99
68251;DHT22;55066;51.560;4.642;2023-11-19T08:58:43;11.31;99.99
68251;DHT22;55066;51.560;4.642;2023-11-19T09:01:25;11.38;99.99
68251;DHT22;55066;51.560;4.642;2023-11-19T09:03:51;11.42;99.99
68251;DHT22;55066;51.560;4.642;2023-11-19T09:06:28;11.60;99.99
68251;DHT22;55066;51.560;4.642;2023-11-19T09:09:02;11.74;99.99
68251;DHT22;55066;51.560;4.642;2023-11-19T09:11:33;11.82;99.99
68251;DHT22;55066;51.560;4.642;2023-11-19T09:14:06;11.86;99.99
68251;DHT22;55066;51.560;4.642;2023-11-19T09:16:41;11.83;99.99
68251;DHT22;55066;51.560;4.642;2023-11-19T09:19:13;11.83;99.99
68251;DHT22;55066;51.560;4.642;2023-11-19T09:24:30;11.69;99.99
68251;DHT22;55066;51.560;4.642;2023-11-19T09:27:04;11.77;99.99
68251;DHT22;55066;51.560;4.642;2023-11-19T09:29:36;11.96;99.99
68251;DHT22;55066;51.560;4.642;2023-11-19T09:32:31;11.92;99.99
68251;DHT22;55066;51.560;4.642;2023-11-19T09:35:03;12.12;99.99
68251;DHT22;55066;51.560;4.642;2023-11-19T09:37:31;12.19;99.99
68251;DHT22;55066;51.560;4.642;2023-11-19T09:39:57;12.29;99.99
68251;DHT22;55066;51.560;4.642;2023-11-19T09:42:23;12.32;99.99
68251;DHT22;55066;51.560;4.642;2023-11-19T09:44:49;12.27;99.99
68251;DHT22;55066;51.560;4.642;2023-11-19T09:47:16;12.26;99.99
68251;DHT22;55066;51.560;4.642;2023-11-19T09:49:42;12.22;99.99
68251;DHT22;55066;51.560;4.642;2023-11-19T09:52:08;12.29;99.99
68251;DHT22;55066;51.560;4.642;2023-11-19T09:54:33;12.33;99.99
68251;DHT22;55066;51.560;4.642;2023-11-19T09:57:02;12.33;99.99
68251;DHT22;55066;51.560;4.642;2023-11-19T09:59:30;12.38;99.99
68251;DHT22;55066;51.560;4.642;2023-11-19T10:01:56;12.38;99.99
68251;DHT22;55066;51.560;4.642;2023-11-19T10:04:22;12.41;99.99
68251;DHT22;55066;51.560;4.642;2023-11-19T10:06:50;12.44;99.99
68251;DHT22;55066;51.560;4.642;2023-11-19T10:09:16;12.55;99.99
68251;DHT22;55066;51.560;4.642;2023-11-19T10:11:42;12.53;99.99
68251;DHT22;55066;51.560;4.642;2023-11-19T10:14:07;12.53;99.99
68251;DHT22;55066;51.560;4.642;2023-11-19T10:16:34;12.55;99.99
68251;DHT22;55066;51.560;4.642;2023-11-19T10:19:00;12.65;99.99
68251;DHT22;55066;51.560;4.642;2023-11-19T10:21:25;12.65;99.99
68251;DHT22;55066;51.560;4.642;2023-11-19T10:23:56;12.64;99.99
68251;DHT22;55066;51.560;4.642;2023-11-19T10:26:26;12.75;99.99
68251;DHT22;55066;51.560;4.642;2023-11-19T10:28:52;12.74;99.99
68251;DHT22;55066;51.560;4.642;2023-11-19T10:31:20;12.80;99.99
68251;DHT22;55066;51.560;4.642;2023-11-19T10:33:52;12.80;99.99
68251;DHT22;55066;51.560;4.642;2023-11-19T10:36:18;13.02;99.99
68251;DHT22;55066;51.560;4.642;2023-11-19T10:38:55;13.12;99.99
68251;DHT22;55066;51.560;4.642;2023-11-19T10:41:30;13.20;99.99
68251;DHT22;55066;51.560;4.642;2023-11-19T10:43:56;13.22;99.99
68251;DHT22;55066;51.560;4.642;2023-11-19T10:46:22;13.08;99.99
68251;DHT22;55066;51.560;4.642;2023-11-19T10:48:49;12.84;99.99
68251;DHT22;55066;51.560;4.642;2023-11-19T10:51:18;12.77;99.99
68251;DHT22;55066;51.560;4.642;2023-11-19T10:53:49;12.48;99.99
68251;DHT22;55066;51.560;4.642;2023-11-19T10:56:16;11.85;99.99
68251;DHT22;55066;51.560;4.642;2023-11-19T10:58:45;11.54;99.99
68251;DHT22;55066;51.560;4.642;2023-11-19T11:01:16;11.42;99.99
68251;DHT22;55066;51.560;4.642;2023-11-19T11:03:44;11.47;99.99
68251;DHT22;55066;51.560;4.642;2023-11-19T11:06:12;11.69;99.99
68251;DHT22;55066;51.560;4.642;2023-11-19T11:08:39;12.16;99.99
68251;DHT22;55066;51.560;4.642;2023-11-19T11:11:05;12.24;99.99
68251;DHT22;55066;51.560;4.642;2023-11-19T11:13:34;12.41;99.99
68251;DHT22;55066;51.560;4.642;2023-11-19T11:16:03;12.58;99.99
68251;DHT22;55066;51.560;4.642;2023-11-19T11:18:29;12.65;99.99
68251;DHT22;55066;51.560;4.642;2023-11-19T11:21:06;12.82;99.99
68251;DHT22;55066;51.560;4.642;2023-11-19T11:26:47;12.67;99.99
68251;DHT22;55066;51.560;4.642;2023-11-19T11:34:53;12.51;99.99
68251;DHT22;55066;51.560;4.642;2023-11-19T11:37:32;12.53;99.99
68251;DHT22;55066;51.560;4.642;2023-11-19T11:39:58;12.50;99.99
68251;DHT22;55066;51.560;4.642;2023-11-19T11:45:06;12.60;99.99
68251;DHT22;55066;51.560;4.642;2023-11-19T11:50:11;12.89;99.99
68251;DHT22;55066;51.560;4.642;2023-11-19T11:56:00;13.18;99.99
68251;DHT22;55066;51.560;4.642;2023-11-19T11:58:30;13.09;99.99
68251;DHT22;55066;51.560;4.642;2023-11-19T12:00:58;13.05;99.99
68251;DHT22;55066;51.560;4.642;2023-11-19T12:03:27;13.15;99.99
68251;DHT22;55066;51.560;4.642;2023-11-19T12:05:53;13.19;99.99
68251;DHT22;55066;51.560;4.642;2023-11-19T12:08:19;13.33;99.99
68251;DHT22;55066;51.560;4.642;2023-11-19T12:10:50;13.42;99.99
68251;DHT22;55066;51.560;4.642;2023-11-19T12:13:17;13.47;99.99
68251;DHT22;55066;51.560;4.642;2023-11-19T12:18:23;13.40;99.99
68251;DHT22;55066;51.560;4.642;2023-11-19T12:20:48;13.36;99.99
68251;DHT22;55066;51.560;4.642;2023-11-19T12:23:14;13.26;99.99
68251;DHT22;55066;51.560;4.642;2023-11-19T12:25:40;13.19;99.99
68251;DHT22;55066;51.560;4.642;2023-11-19T12:28:05;12.88;99.99
68251;DHT22;55066;51.560;4.642;2023-11-19T12:30:31;12.67;99.99
68251;DHT22;55066;51.560;4.642;2023-11-19T12:32:56;12.58;99.99
68251;DHT22;55066;51.560;4.642;2023-11-19T12:35:23;12.47;99.99
68251;DHT22;55066;51.560;4.642;2023-11-19T12:37:49;12.40;99.99
68251;DHT22;55066;51.560;4.642;2023-11-19T12:40:20;12.69;99.99
68251;DHT22;55066;51.560;4.642;2023-11-19T12:42:46;12.75;99.99
68251;DHT22;55066;51.560;4.642;2023-11-19T12:45:12;12.87;99.99
68251;DHT22;55066;51.560;4.642;2023-11-19T12:47:44;12.82;99.99
68251;DHT22;55066;51.560;4.642;2023-11-19T12:50:12;12.78;99.99
68251;DHT22;55066;51.560;4.642;2023-11-19T12:52:38;12.74;99.99
68251;DHT22;55066;51.560;4.642;2023-11-19T12:57:52;12.82;99.99
68251;DHT22;55066;51.560;4.642;2023-11-19T13:00:19;12.91;99.99
68251;DHT22;55066;51.560;4.642;2023-11-19T13:02:50;12.99;99.99
68251;DHT22;55066;51.560;4.642;2023-11-19T13:05:34;13.10;99.99
68251;DHT22;55066;51.560;4.642;2023-11-19T13:08:04;13.15;99.99
68251;DHT22;55066;51.560;4.642;2023-11-19T13:10:50;13.15;99.99
68251;DHT22;55066;51.560;4.642;2023-11-19T13:13:16;13.19;99.99
68251;DHT22;55066;51.560;4.642;2023-11-19T13:15:41;13.20;99.99
68251;DHT22;55066;51.560;4.642;2023-11-19T13:18:08;13.15;99.99
68251;DHT22;55066;51.560;4.642;2023-11-19T13:20:33;13.23;99.99
68251;DHT22;55066;51.560;4.642;2023-11-19T13:23:01;13.15;99.99
68251;DHT22;55066;51.560;4.642;2023-11-19T13:25:28;13.18;99.99
68251;DHT22;55066;51.560;4.642;2023-11-19T13:27:54;13.19;99.99
68251;DHT22;55066;51.560;4.642;2023-11-19T13:30:20;13.24;99.99
68251;DHT22;55066;51.560;4.642;2023-11-19T13:32:45;13.44;99.99
68251;DHT22;55066;51.560;4.642;2023-11-19T13:35:15;13.42;99.99
68251;DHT22;55066;51.560;4.642;2023-11-19T13:37:41;13.35;99.99
68251;DHT22;55066;51.560;4.642;2023-11-19T13:40:07;13.33;99.99
68251;DHT22;55066;51.560;4.642;2023-11-19T13:42:33;13.35;99.99
68251;DHT22;55066;51.560;4.642;2023-11-19T13:44:58;13.32;99.99
68251;DHT22;55066;51.560;4.642;2023-11-19T13:47:23;13.24;99.99
68251;DHT22;55066;51.560;4.642;2023-11-19T13:49:49;13.27;99.99
68251;DHT22;55066;51.560;4.642;2023-11-19T13:52:15;13.26;99.99
68251;DHT22;55066;51.560;4.642;2023-11-19T13:54:40;13.33;99.99
68251;DHT22;55066;51.560;4.642;2023-11-19T13:57:06;13.48;99.99
68251;DHT22;55066;51.560;4.642;2023-11-19T13:59:31;13.44;99.99
68251;DHT22;55066;51.560;4.642;2023-11-19T14:02:00;13.37;99.99
68251;DHT22;55066;51.560;4.642;2023-11-19T14:04:25;13.46;99.99
68251;DHT22;55066;51.560;4.642;2023-11-19T14:06:51;13.33;99.99
68251;DHT22;55066;51.560;4.642;2023-11-19T14:09:17;13.23;99.99
68251;DHT22;55066;51.560;4.642;2023-11-19T14:11:43;13.22;99.99
68251;DHT22;55066;51.560;4.642;2023-11-19T14:14:09;13.24;99.99
68251;DHT22;55066;51.560;4.642;2023-11-19T14:16:34;13.10;99.99
68251;DHT22;55066;51.560;4.642;2023-11-19T14:19:00;13.10;99.99
68251;DHT22;55066;51.560;4.642;2023-11-19T14:21:25;13.24;99.99
68251;DHT22;55066;51.560;4.642;2023-11-19T14:23:52;13.20;99.99
68251;DHT22;55066;51.560;4.642;2023-11-19T14:26:18;13.22;99.99
68251;DHT22;55066;51.560;4.642;2023-11-19T14:28:43;13.16;99.99
68251;DHT22;55066;51.560;4.642;2023-11-19T14:31:08;13.10;99.99
68251;DHT22;55066;51.560;4.642;2023-11-19T14:33:34;13.05;99.99
68251;DHT22;55066;51.560;4.642;2023-11-19T14:36:01;12.88;99.99
68251;DHT22;55066;51.560;4.642;2023-11-19T14:38:27;12.65;99.99
68251;DHT22;55066;51.560;4.642;2023-11-19T14:40:52;12.60;99.99
68251;DHT22;55066;51.560;4.642;2023-11-19T14:43:18;12.53;99.99
68251;DHT22;55066;51.560;4.642;2023-11-19T14:45:43;12.45;99.99
68251;DHT22;55066;51.560;4.642;2023-11-19T14:48:08;12.51;99.99
68251;DHT22;55066;51.560;4.642;2023-11-19T14:50:35;12.50;99.99
68251;DHT22;55066;51.560;4.642;2023-11-19T14:53:01;12.50;99.99
68251;DHT22;55066;51.560;4.642;2023-11-19T14:55:27;12.50;99.99
68251;DHT22;55066;51.560;4.642;2023-11-19T14:57:52;12.51;99.99
68251;DHT22;55066;51.560;4.642;2023-11-19T15:00:19;12.51;99.99
68251;DHT22;55066;51.560;4.642;2023-11-19T15:02:44;12.44;99.99
68251;DHT22;55066;51.560;4.642;2023-11-19T15:05:10;12.47;99.99
68251;DHT22;55066;51.560;4.642;2023-11-19T15:07:37;12.43;99.99
68251;DHT22;55066;51.560;4.642;2023-11-19T15:10:03;12.40;99.99
68251;DHT22;55066;51.560;4.642;2023-11-19T15:12:29;12.38;99.99
68251;DHT22;55066;51.560;4.642;2023-11-19T15:14:54;12.38;99.99
68251;DHT22;55066;51.560;4.642;2023-11-19T15:17:20;12.37;99.99
68251;DHT22;55066;51.560;4.642;2023-11-19T15:19:46;12.37;99.99
68251;DHT22;55066;51.560;4.642;2023-11-19T15:22:12;12.36;99.99
68251;DHT22;55066;51.560;4.642;2023-11-19T15:24:38;12.38;99.99
68251;DHT22;55066;51.560;4.642;2023-11-19T15:27:05;12.40;99.99
68251;DHT22;55066;51.560;4.642;2023-11-19T15:29:31;12.34;99.99
68251;DHT22;55066;51.560;4.642;2023-11-19T15:31:59;12.38;99.99
68251;DHT22;55066;51.560;4.642;2023-11-19T15:34:24;12.34;99.99
68251;DHT22;55066;51.560;4.642;2023-11-19T15:36:50;12.33;99.99
68251;DHT22;55066;51.560;4.642;2023-11-19T15:39:16;12.27;99.99
68251;DHT22;55066;51.560;4.642;2023-11-19T15:41:41;12.19;99.99
68251;DHT22;55066;51.560;4.642;2023-11-19T15:44:07;12.22;99.99
68251;DHT22;55066;51.560;4.642;2023-11-19T15:46:33;12.23;99.99
68251;DHT22;55066;51.560;4.642;2023-11-19T15:48:58;12.16;99.99
68251;DHT22;55066;51.560;4.642;2023-11-19T15:51:24;12.12;99.99
68251;DHT22;55066;51.560;4.642;2023-11-19T15:53:49;12.05;99.99
68251;DHT22;55066;51.560;4.642;2023-11-19T15:56:15;11.98;99.99
68251;DHT22;55066;51.560;4.642;2023-11-19T15:58:40;11.98;99.99
68251;DHT22;55066;51.560;4.642;2023-11-19T16:01:06;11.89;99.99
68251;DHT22;55066;51.560;4.642;2023-11-19T16:03:33;11.83;99.99
68251;DHT22;55066;51.560;4.642;2023-11-19T16:05:59;11.82;99.99
68251;DHT22;55066;51.560;4.642;2023-11-19T16:08:24;11.72;99.99
68251;DHT22;55066;51.560;4.642;2023-11-19T16:10:50;11.65;99.99
68251;DHT22;55066;51.560;4.642;2023-11-19T16:13:15;11.65;99.99
68251;DHT22;55066;51.560;4.642;2023-11-19T16:15:41;11.64;99.99
68251;DHT22;55066;51.560;4.642;2023-11-19T16:18:06;11.61;99.99